Time;durP1;ratioP1;P1;durP2;ratioP2;P2;SDS_P1;SDS_P2;PMS_P1;PMS_P2;Temp;Humidity;BMP_temperature;BMP_pressure;BME280_temperature;BME280_humidity;BME280_pressure;Samples;Min_cycle;Max_cycle;Signal;HPM_P1;HPM_P2
2021/01/01 00:02:00;;;;;;;248.27;94.82;;;2.50;99.90;;;;;;5044987;28;20447;-58
2021/01/01 00:04:25;;;;;;;187.93;73.80;;;2.50;99.90;;;;;;5052286;28;20033;-58
2021/01/01 00:06:51;;;;;;;181.15;71.20;;;2.50;99.90;;;;;;5043557;28;20737;-58
2021/01/01 00:09:17;;;;;;;184.75;69.53;;;2.50;99.90;;;;;;5038677;28;20028;-58
2021/01/01 00:11:53;;;;;;;170.05;65.18;;;2.50;99.90;;;;;;5043293;28;20029;-58
2021/01/01 00:14:19;;;;;;;161.48;65.45;;;2.60;99.90;;;;;;5048224;28;20452;-58
2021/01/01 00:16:44;;;;;;;162.23;62.80;;;2.70;99.90;;;;;;5046996;28;20116;-58
2021/01/01 00:19:11;;;;;;;154.93;63.47;;;2.70;99.90;;;;;;5042214;28;20040;-58
2021/01/01 00:21:37;;;;;;;157.70;61.72;;;2.80;99.90;;;;;;5042881;28;20108;-58
2021/01/01 00:24:03;;;;;;;150.32;63.13;;;2.70;99.90;;;;;;5051085;28;20122;-58
2021/01/01 00:26:28;;;;;;;152.98;59.25;;;2.60;99.90;;;;;;5050381;28;20040;-58
2021/01/01 00:28:54;;;;;;;157.23;60.80;;;2.50;99.90;;;;;;5052095;28;20033;-58
2021/01/01 00:31:22;;;;;;;162.65;62.15;;;2.50;99.90;;;;;;5057724;28;20029;-58
2021/01/01 00:33:48;;;;;;;151.65;59.75;;;2.50;99.90;;;;;;5057536;28;20020;-58
2021/01/01 00:36:15;;;;;;;142.80;55.97;;;2.50;99.90;;;;;;5061737;28;20028;-58
2021/01/01 00:38:50;;;;;;;144.95;61.40;;;2.50;99.90;;;;;;5053212;28;20021;-58
2021/01/01 00:41:31;;;;;;;133.73;53.47;;;2.50;99.90;;;;;;5051872;28;20017;-58
2021/01/01 00:43:58;;;;;;;127.93;50.50;;;2.50;99.90;;;;;;5058271;28;20534;-58
2021/01/01 00:46:25;;;;;;;133.30;51.25;;;2.40;99.90;;;;;;5060703;28;20112;-58
2021/01/01 00:48:51;;;;;;;132.00;49.17;;;2.40;99.90;;;;;;5050129;28;20025;-58
2021/01/01 00:51:31;;;;;;;120.78;46.95;;;2.50;99.90;;;;;;5055146;28;20116;-58
2021/01/01 00:53:59;;;;;;;118.88;47.20;;;2.60;99.90;;;;;;5052926;28;20881;-58
2021/01/01 00:56:25;;;;;;;120.45;48.95;;;2.50;99.90;;;;;;5056031;28;20511;-58
2021/01/01 00:58:52;;;;;;;119.40;45.95;;;2.50;99.90;;;;;;5042266;28;20103;-58
2021/01/01 01:01:21;;;;;;;111.47;45.78;;;2.50;99.90;;;;;;5047025;28;20021;-58
2021/01/01 01:03:48;;;;;;;116.45;46.67;;;2.60;99.90;;;;;;5039223;28;20043;-58
2021/01/01 01:06:14;;;;;;;124.60;46.17;;;2.80;99.90;;;;;;5045086;28;20032;-58
2021/01/01 01:08:41;;;;;;;118.68;45.63;;;2.60;99.90;;;;;;5046289;28;20032;-58
2021/01/01 01:11:06;;;;;;;127.10;46.55;;;2.50;99.90;;;;;;5048695;28;20059;-58
2021/01/01 01:13:32;;;;;;;123.82;47.50;;;2.60;99.90;;;;;;5049096;28;20037;-58
2021/01/01 01:15:57;;;;;;;128.85;45.35;;;2.60;99.90;;;;;;5040712;28;20100;-58
2021/01/01 01:18:23;;;;;;;137.25;48.15;;;2.50;99.90;;;;;;5046632;28;20036;-58
2021/01/01 01:20:48;;;;;;;132.90;49.15;;;2.50;99.90;;;;;;5050198;28;20443;-58
2021/01/01 01:23:14;;;;;;;139.45;47.70;;;2.50;99.90;;;;;;5051292;28;20032;-58
2021/01/01 01:25:40;;;;;;;130.30;48.60;;;2.50;99.90;;;;;;5050910;28;20473;-58
2021/01/01 01:28:05;;;;;;;129.00;48.22;;;2.50;99.90;;;;;;5049283;28;20039;-58
2021/01/01 01:30:31;;;;;;;124.22;48.38;;;2.50;99.90;;;;;;5049338;28;20130;-58
2021/01/01 01:32:56;;;;;;;131.88;48.85;;;2.40;99.90;;;;;;5049347;28;20040;-58
2021/01/01 01:35:22;;;;;;;145.00;49.75;;;2.40;99.90;;;;;;5051242;28;20147;-58
2021/01/01 01:37:48;;;;;;;151.48;55.30;;;2.40;99.90;;;;;;5065760;28;20029;-59
2021/01/01 01:40:14;;;;;;;154.63;54.65;;;2.40;99.90;;;;;;5049620;28;20406;-58
2021/01/01 01:42:39;;;;;;;155.13;53.80;;;2.40;99.90;;;;;;5046093;28;20090;-58
2021/01/01 01:45:07;;;;;;;159.02;54.05;;;2.40;99.90;;;;;;5053274;28;20024;-58
2021/01/01 01:47:34;;;;;;;157.00;56.55;;;2.40;99.90;;;;;;5055639;28;20032;-58
2021/01/01 01:50:00;;;;;;;164.15;58.20;;;2.50;99.90;;;;;;5048230;28;20059;-58
2021/01/01 01:52:26;;;;;;;146.48;53.00;;;2.50;99.90;;;;;;5040475;28;20053;-58
2021/01/01 01:54:54;;;;;;;156.52;57.50;;;2.50;99.90;;;;;;5041183;28;20728;-58
2021/01/01 01:57:21;;;;;;;159.30;56.92;;;2.50;99.90;;;;;;5041039;28;20602;-58
2021/01/01 01:59:51;;;;;;;170.95;57.85;;;2.50;99.90;;;;;;5045729;28;20432;-58
2021/01/01 02:02:17;;;;;;;150.38;55.20;;;2.50;99.90;;;;;;5059991;28;20028;-58
2021/01/01 02:04:43;;;;;;;164.48;56.17;;;2.50;99.90;;;;;;5053281;28;20513;-58
2021/01/01 02:07:09;;;;;;;134.50;47.22;;;2.70;99.90;;;;;;5054819;28;20028;-58
2021/01/01 02:09:35;;;;;;;135.13;46.90;;;2.70;99.90;;;;;;5045305;28;20028;-60
2021/01/01 02:12:01;;;;;;;119.68;38.05;;;2.70;99.90;;;;;;5047546;28;20028;-60
2021/01/01 02:14:27;;;;;;;135.90;45.58;;;2.80;99.90;;;;;;5047348;28;20480;-60
2021/01/01 02:16:52;;;;;;;119.53;40.92;;;2.80;99.90;;;;;;5032597;28;20037;-60
2021/01/01 02:19:18;;;;;;;111.43;40.53;;;2.60;99.90;;;;;;5040172;28;20022;-60
2021/01/01 02:21:44;;;;;;;123.18;42.60;;;2.50;99.90;;;;;;5036610;28;20366;-60
2021/01/01 02:24:11;;;;;;;125.45;41.50;;;2.40;99.90;;;;;;5040640;28;20040;-60
2021/01/01 02:26:37;;;;;;;128.52;43.92;;;2.30;99.90;;;;;;5036469;28;20017;-60
2021/01/01 02:29:03;;;;;;;140.40;43.72;;;2.20;99.90;;;;;;5033376;28;20029;-60
2021/01/01 02:31:29;;;;;;;140.50;44.97;;;2.20;99.90;;;;;;5051091;28;20037;-60
2021/01/01 02:33:54;;;;;;;131.60;41.85;;;2.20;99.90;;;;;;5053294;28;20155;-58
2021/01/01 02:36:20;;;;;;;140.02;43.42;;;2.30;99.90;;;;;;5056776;28;20788;-58
2021/01/01 02:38:46;;;;;;;119.07;41.10;;;2.20;99.90;;;;;;5059348;28;20667;-57
2021/01/01 02:41:12;;;;;;;128.93;43.50;;;2.30;99.90;;;;;;5052592;28;20025;-58
2021/01/01 02:43:38;;;;;;;133.65;41.83;;;2.20;99.90;;;;;;5053850;28;20039;-57
2021/01/01 02:46:04;;;;;;;130.35;41.58;;;2.20;99.90;;;;;;5054439;28;20032;-58
2021/01/01 02:48:29;;;;;;;128.30;43.10;;;2.10;99.90;;;;;;5056791;28;20445;-58
2021/01/01 02:50:55;;;;;;;134.55;43.33;;;2.40;99.90;;;;;;5053287;28;20056;-58
2021/01/01 02:53:21;;;;;;;119.00;39.22;;;2.40;99.90;;;;;;5060434;28;20032;-58
2021/01/01 02:55:47;;;;;;;128.55;43.72;;;2.30;99.90;;;;;;5048728;28;20021;-58
2021/01/01 02:58:13;;;;;;;136.27;44.17;;;2.20;99.90;;;;;;5061172;28;20027;-58
2021/01/01 03:00:40;;;;;;;120.60;40.40;;;2.20;99.90;;;;;;5058760;28;20021;-58
2021/01/01 03:03:06;;;;;;;114.10;38.33;;;2.20;99.90;;;;;;5057163;28;20253;-58
2021/01/01 03:05:32;;;;;;;121.80;39.08;;;2.40;99.90;;;;;;5049800;28;20029;-58
2021/01/01 03:07:57;;;;;;;102.50;34.17;;;2.50;99.90;;;;;;5056777;28;20100;-60
2021/01/01 03:10:23;;;;;;;113.72;37.67;;;2.70;99.90;;;;;;5060043;28;20029;-60
2021/01/01 03:12:49;;;;;;;113.50;36.08;;;2.60;99.90;;;;;;5046635;28;20115;-60
2021/01/01 03:15:15;;;;;;;115.68;38.70;;;2.80;99.90;;;;;;5045393;28;20120;-60
2021/01/01 03:17:41;;;;;;;121.25;40.42;;;2.90;99.90;;;;;;5063311;28;20032;-60
2021/01/01 03:20:07;;;;;;;118.47;39.85;;;2.80;99.90;;;;;;5047485;28;20152;-60
2021/01/01 03:22:33;;;;;;;112.65;39.35;;;2.90;99.90;;;;;;5060706;28;20052;-60
2021/01/01 03:24:59;;;;;;;116.90;40.70;;;2.90;99.90;;;;;;5050042;28;20072;-59
2021/01/01 03:27:24;;;;;;;117.82;37.22;;;2.90;99.90;;;;;;5060544;28;20024;-60
2021/01/01 03:29:50;;;;;;;105.70;36.58;;;2.90;99.90;;;;;;5053330;28;20041;-60
2021/01/01 03:32:16;;;;;;;105.05;38.22;;;3.00;99.90;;;;;;5049237;28;20043;-60
2021/01/01 03:34:41;;;;;;;108.40;36.70;;;2.90;99.90;;;;;;5065087;28;20063;-60
2021/01/01 03:37:07;;;;;;;98.25;36.65;;;2.80;99.90;;;;;;5062344;28;20051;-60
2021/01/01 03:39:33;;;;;;;117.18;39.95;;;2.80;99.90;;;;;;5066621;28;20480;-60
2021/01/01 03:41:59;;;;;;;115.35;38.72;;;2.80;99.90;;;;;;5054376;28;20106;-59
2021/01/01 03:44:24;;;;;;;114.20;40.58;;;2.80;99.90;;;;;;5043476;28;20136;-59
2021/01/01 03:46:50;;;;;;;115.63;41.72;;;2.80;99.90;;;;;;5059085;28;20039;-60
2021/01/01 03:49:15;;;;;;;120.70;41.35;;;2.80;99.90;;;;;;5049575;28;20035;-60
2021/01/01 03:51:41;;;;;;;111.07;39.28;;;2.80;99.90;;;;;;5056537;28;20537;-60
2021/01/01 03:54:07;;;;;;;117.68;40.72;;;2.70;99.90;;;;;;5057251;28;20020;-57
2021/01/01 03:56:32;;;;;;;112.38;41.85;;;2.70;99.90;;;;;;5055857;28;20033;-60
2021/01/01 03:58:58;;;;;;;118.82;40.38;;;2.70;99.90;;;;;;5058358;28;20120;-60
2021/01/01 04:01:23;;;;;;;117.60;40.25;;;2.80;99.90;;;;;;5059034;28;20033;-60
2021/01/01 04:03:49;;;;;;;116.78;40.42;;;2.80;99.90;;;;;;5059224;28;20027;-60
2021/01/01 04:06:14;;;;;;;106.35;41.35;;;2.90;99.90;;;;;;5056425;28;20086;-60
2021/01/01 04:08:40;;;;;;;109.03;36.47;;;2.90;99.90;;;;;;5054486;28;20548;-60
2021/01/01 04:11:06;;;;;;;121.13;41.15;;;2.80;99.90;;;;;;5059037;28;20029;-60
2021/01/01 04:13:32;;;;;;;118.57;39.05;;;2.80;99.90;;;;;;5048335;28;20037;-60
2021/01/01 04:16:01;;;;;;;111.22;40.92;;;2.80;99.90;;;;;;5054210;28;20051;-60
2021/01/01 04:18:26;;;;;;;116.93;40.60;;;2.70;99.90;;;;;;5051654;28;20045;-58
2021/01/01 04:20:52;;;;;;;121.53;41.92;;;2.80;99.90;;;;;;5052123;28;20170;-58
2021/01/01 04:23:18;;;;;;;106.72;40.55;;;2.80;99.90;;;;;;5054076;28;20025;-58
2021/01/01 04:25:47;;;;;;;107.15;41.00;;;2.80;99.90;;;;;;5080656;28;20115;-58
2021/01/01 04:28:13;;;;;;;125.88;42.22;;;2.80;99.90;;;;;;5062912;28;20150;-58
2021/01/01 04:30:38;;;;;;;110.47;41.20;;;2.50;99.90;;;;;;5054837;28;20104;-58
2021/01/01 04:33:04;;;;;;;117.82;41.78;;;2.40;99.90;;;;;;5061827;28;20032;-59
2021/01/01 04:35:29;;;;;;;128.45;43.95;;;2.70;99.90;;;;;;5058376;28;20032;-58
2021/01/01 04:37:55;;;;;;;126.72;44.17;;;2.80;99.90;;;;;;5059812;28;20035;-61
2021/01/01 04:40:21;;;;;;;109.70;39.40;;;2.70;99.90;;;;;;5055410;28;20106;-58
2021/01/01 04:42:47;;;;;;;113.18;41.25;;;2.80;99.90;;;;;;5057329;28;20032;-58
2021/01/01 04:45:13;;;;;;;119.18;40.33;;;2.70;99.90;;;;;;5061956;28;20152;-58
2021/01/01 04:47:40;;;;;;;111.15;40.78;;;2.80;99.90;;;;;;5064856;28;20690;-59
2021/01/01 04:50:06;;;;;;;111.00;40.03;;;2.70;99.90;;;;;;5056184;28;20047;-58
2021/01/01 04:52:33;;;;;;;105.70;38.88;;;2.60;99.90;;;;;;5048926;28;20142;-58
2021/01/01 04:55:00;;;;;;;115.47;39.58;;;2.70;99.90;;;;;;5055345;28;20062;-58
2021/01/01 04:57:29;;;;;;;119.25;41.53;;;2.70;99.90;;;;;;5054205;28;20029;-58
2021/01/01 04:59:55;;;;;;;111.63;41.28;;;2.60;99.90;;;;;;5061004;28;20029;-58
2021/01/01 05:02:21;;;;;;;113.78;39.60;;;2.50;99.90;;;;;;5057638;28;20120;-58
2021/01/01 05:04:47;;;;;;;112.68;39.70;;;2.40;99.90;;;;;;5056893;28;20108;-58
2021/01/01 05:07:20;;;;;;;113.15;39.53;;;2.40;99.90;;;;;;5056654;28;20020;-59
2021/01/01 05:09:47;;;;;;;117.45;40.60;;;2.50;99.90;;;;;;5048169;28;20123;-58
2021/01/01 05:12:14;;;;;;;109.90;39.58;;;2.50;99.90;;;;;;5047438;28;20584;-58
2021/01/01 05:14:40;;;;;;;107.25;40.05;;;2.50;99.90;;;;;;5040203;28;20025;-58
2021/01/01 05:17:07;;;;;;;114.15;38.83;;;2.50;99.90;;;;;;5061462;28;20090;-58
2021/01/01 05:19:37;;;;;;;108.60;36.28;;;2.60;99.90;;;;;;5043031;28;20032;-58
2021/01/01 05:22:05;;;;;;;108.00;39.10;;;2.60;99.90;;;;;;5056247;28;20087;-58
2021/01/01 05:24:37;;;;;;;113.47;37.85;;;2.70;99.90;;;;;;5048997;28;20044;-58
2021/01/01 05:27:10;;;;;;;98.13;35.15;;;2.50;99.90;;;;;;5046304;28;20520;-58
2021/01/01 05:29:43;;;;;;;94.80;36.00;;;2.70;99.90;;;;;;5043077;28;20037;-58
2021/01/01 05:32:09;;;;;;;96.95;35.47;;;2.80;99.90;;;;;;5046378;28;20045;-58
2021/01/01 05:34:43;;;;;;;101.57;35.17;;;2.60;99.90;;;;;;5034658;28;20108;-58
2021/01/01 05:37:09;;;;;;;94.80;34.72;;;2.60;99.90;;;;;;5034981;28;20036;-58
2021/01/01 05:39:35;;;;;;;104.63;35.55;;;2.70;99.90;;;;;;5047891;28;20831;-58
2021/01/01 05:42:01;;;;;;;93.45;32.83;;;2.70;99.90;;;;;;5048060;28;20029;-60
2021/01/01 05:44:29;;;;;;;84.03;31.55;;;2.90;99.90;;;;;;5058755;28;20028;-60
2021/01/01 05:46:59;;;;;;;87.82;32.75;;;2.90;99.90;;;;;;5063469;28;20020;-60
2021/01/01 05:49:26;;;;;;;;;;;2.80;99.90;;;;;;5032546;28;20021;-60
2021/01/01 05:52:13;;;;;;;90.57;33.88;;;2.90;99.90;;;;;;5030131;28;19991;-60
2021/01/01 05:54:41;;;;;;;92.32;32.95;;;2.80;99.90;;;;;;5047709;28;20029;-60
2021/01/01 05:57:11;;;;;;;99.47;34.53;;;2.80;99.90;;;;;;5031172;28;20088;-60
2021/01/01 05:59:47;;;;;;;93.32;34.00;;;2.80;99.90;;;;;;5037340;28;20032;-60
2021/01/01 06:02:14;;;;;;;88.32;32.70;;;2.90;99.90;;;;;;5046332;28;20530;-60
2021/01/01 06:04:40;;;;;;;96.38;34.78;;;2.80;99.90;;;;;;5045209;28;20472;-58
2021/01/01 06:07:11;;;;;;;93.38;34.42;;;2.70;99.90;;;;;;5047093;28;20025;-58
2021/01/01 06:09:39;;;;;;;95.30;34.25;;;2.60;99.90;;;;;;5047674;28;20484;-59
2021/01/01 06:12:11;;;;;;;95.60;32.88;;;2.50;99.90;;;;;;5046533;28;20040;-58
2021/01/01 06:14:43;;;;;;;91.22;34.60;;;2.40;99.90;;;;;;5043413;28;20026;-58
2021/01/01 06:17:08;;;;;;;110.03;36.85;;;2.40;99.90;;;;;;5036508;28;20025;-58
2021/01/01 06:19:52;;;;;;;96.65;34.17;;;2.50;99.90;;;;;;5046130;28;20036;-58
2021/01/01 06:22:21;;;;;;;98.85;32.65;;;2.60;99.90;;;;;;5028139;28;20038;-60
2021/01/01 06:25:09;;;;;;;96.72;34.53;;;2.70;99.90;;;;;;5043295;28;20114;-58
2021/01/01 06:27:35;;;;;;;83.68;32.45;;;2.70;99.90;;;;;;5049338;28;20096;-58
2021/01/01 06:30:11;;;;;;;95.88;33.63;;;2.70;99.90;;;;;;5034596;28;20020;-58
2021/01/01 06:32:38;;;;;;;107.07;36.03;;;2.70;99.90;;;;;;5047729;28;20028;-59
2021/01/01 06:35:24;;;;;;;86.25;31.48;;;2.50;99.90;;;;;;5041592;28;20052;-58
2021/01/01 06:37:51;;;;;;;90.25;32.83;;;2.50;99.90;;;;;;5042046;28;20032;-58
2021/01/01 06:40:20;;;;;;;93.25;32.78;;;2.50;99.90;;;;;;5046491;28;20091;-60
2021/01/01 06:42:55;;;;;;;71.07;25.00;;;2.60;99.90;;;;;;5057429;28;20025;-60
2021/01/01 06:45:43;;;;;;;82.00;30.02;;;2.60;99.90;;;;;;5045308;28;20032;-61
2021/01/01 06:48:33;;;;;;;91.95;32.63;;;2.50;99.90;;;;;;5039769;28;20029;-58
2021/01/01 06:50:59;;;;;;;82.38;31.42;;;2.40;99.90;;;;;;5034321;28;20487;-58
2021/01/01 06:53:29;;;;;;;82.18;31.10;;;2.30;99.90;;;;;;5033288;28;20037;-58
2021/01/01 06:56:11;;;;;;;83.65;30.48;;;2.10;99.90;;;;;;5042303;28;20095;-58
2021/01/01 06:58:37;;;;;;;82.10;29.25;;;2.10;99.90;;;;;;5029209;28;20045;-58
2021/01/01 07:01:13;;;;;;;92.32;32.42;;;2.20;99.90;;;;;;5045629;28;20549;-58
2021/01/01 07:03:40;;;;;;;84.78;30.85;;;2.20;99.90;;;;;;5047762;28;20032;-58
2021/01/01 07:06:06;;;;;;;88.60;29.63;;;2.30;99.90;;;;;;5045016;28;20514;-58
2021/01/01 07:08:43;;;;;;;79.60;31.98;;;2.20;99.90;;;;;;5042737;28;20056;-58
2021/01/01 07:11:17;;;;;;;84.25;31.40;;;2.20;99.90;;;;;;5049516;28;20155;-58
2021/01/01 07:13:48;;;;;;;85.85;29.73;;;2.20;99.90;;;;;;5047786;28;20025;-58
2021/01/01 07:16:15;;;;;;;;;;;2.20;99.90;;;;;;5043008;28;20037;-58
2021/01/01 07:18:40;;;;;;;89.72;31.33;;;2.00;99.90;;;;;;5052635;28;19952;-58
2021/01/01 07:21:07;;;;;;;81.50;31.65;;;2.20;99.90;;;;;;5039914;28;20159;-58
2021/01/01 07:23:34;;;;;;;95.38;33.33;;;2.00;99.90;;;;;;5047005;28;20158;-60
2021/01/01 07:26:00;;;;;;;88.70;33.38;;;2.20;99.90;;;;;;5034335;28;20056;-60
2021/01/01 07:28:27;;;;;;;90.82;33.00;;;2.20;99.90;;;;;;5037508;28;20476;-60
2021/01/01 07:30:53;;;;;;;88.10;30.48;;;2.10;99.90;;;;;;5034996;28;20674;-60
2021/01/01 07:33:21;;;;;;;92.78;32.50;;;2.20;99.90;;;;;;5037318;28;20028;-60
2021/01/01 07:35:55;;;;;;;103.65;36.17;;;2.20;99.90;;;;;;5044464;28;20030;-60
2021/01/01 07:38:22;;;;;;;90.55;34.15;;;2.20;99.90;;;;;;5037288;28;20030;-58
2021/01/01 07:40:48;;;;;;;103.50;33.88;;;2.10;99.90;;;;;;5050326;28;20168;-58
2021/01/01 07:43:14;;;;;;;97.40;36.00;;;2.30;99.90;;;;;;5048963;28;20041;-58
2021/01/01 07:45:40;;;;;;;92.50;31.35;;;2.30;99.90;;;;;;5051180;28;20036;-60
2021/01/01 07:48:06;;;;;;;104.30;34.38;;;2.30;99.90;;;;;;5037313;28;20030;-58
2021/01/01 07:50:32;;;;;;;95.53;34.40;;;2.30;99.90;;;;;;5050269;28;20143;-58
2021/01/01 07:53:09;;;;;;;107.90;36.70;;;2.20;99.90;;;;;;5041118;28;20045;-58
2021/01/01 07:55:35;;;;;;;106.95;36.97;;;2.30;99.90;;;;;;5043969;28;20468;-60
2021/01/01 07:58:04;;;;;;;102.47;37.92;;;2.50;99.90;;;;;;5041145;28;20537;-60
2021/01/01 08:00:32;;;;;;;98.90;36.13;;;2.50;99.90;;;;;;5048836;28;20024;-59
2021/01/01 08:03:00;;;;;;;97.13;35.17;;;2.40;99.90;;;;;;5048375;28;20027;-61
2021/01/01 08:05:26;;;;;;;97.22;35.95;;;2.50;99.90;;;;;;5039168;28;20025;-59
2021/01/01 08:07:52;;;;;;;102.38;36.53;;;2.60;99.90;;;;;;5065301;28;20032;-59
2021/01/01 08:10:31;;;;;;;102.57;36.47;;;2.40;99.90;;;;;;5040516;28;20096;-59
2021/01/01 08:12:57;;;;;;;95.85;36.70;;;2.30;99.90;;;;;;5046370;28;20048;-59
2021/01/01 08:15:30;;;;;;;103.28;36.03;;;2.50;99.90;;;;;;5050331;28;20033;-61
2021/01/01 08:17:56;;;;;;;98.40;34.63;;;2.50;99.90;;;;;;5019241;28;20081;-59
2021/01/01 08:20:22;;;;;;;95.80;35.58;;;2.50;99.90;;;;;;5011204;28;20046;-59
2021/01/01 08:22:54;;;;;;;101.07;36.28;;;2.40;99.90;;;;;;5025092;28;20083;-59
2021/01/01 08:25:20;;;;;;;97.32;32.72;;;2.30;99.90;;;;;;5022568;28;20104;-59
2021/01/01 08:27:47;;;;;;;94.50;36.70;;;2.40;99.90;;;;;;5023361;28;20541;-59
2021/01/01 08:30:14;;;;;;;87.53;34.38;;;2.60;99.90;;;;;;5026675;28;20037;-59
2021/01/01 08:32:40;;;;;;;96.68;36.00;;;2.50;99.90;;;;;;5031647;28;20094;-59
2021/01/01 08:35:10;;;;;;;101.10;37.40;;;2.70;99.90;;;;;;5025901;28;20148;-59
2021/01/01 08:37:35;;;;;;;98.85;34.50;;;2.70;99.90;;;;;;5021130;28;20168;-59
2021/01/01 08:40:09;;;;;;;94.85;33.15;;;2.80;99.90;;;;;;5021859;28;20053;-59
2021/01/01 08:42:36;;;;;;;96.25;35.47;;;2.90;99.90;;;;;;5026172;28;20025;-59
2021/01/01 08:45:10;;;;;;;95.07;34.45;;;2.70;99.90;;;;;;5026556;28;20091;-59
2021/01/01 08:47:43;;;;;;;95.05;33.83;;;2.80;99.90;;;;;;5014569;28;20441;-59
2021/01/01 08:50:28;;;;;;;83.93;30.17;;;2.80;99.90;;;;;;5044208;28;20064;-59
2021/01/01 08:52:56;;;;;;;81.93;33.58;;;3.00;99.90;;;;;;5039920;28;20041;-61
2021/01/01 08:55:22;;;;;;;87.10;30.27;;;2.90;99.90;;;;;;5038770;28;20037;-61
2021/01/01 08:57:48;;;;;;;80.28;31.52;;;3.00;99.90;;;;;;5048047;28;20025;-61
2021/01/01 09:00:14;;;;;;;81.82;33.63;;;2.90;99.90;;;;;;5047578;28;20435;-59
2021/01/01 09:02:41;;;;;;;74.80;29.60;;;3.00;99.90;;;;;;5049033;28;20400;-59
2021/01/01 09:05:11;;;;;;;80.03;31.98;;;3.10;99.90;;;;;;5057519;28;20027;-59
2021/01/01 09:07:36;;;;;;;83.53;31.48;;;3.20;99.90;;;;;;5039166;28;20033;-59
2021/01/01 09:10:18;;;;;;;93.70;34.22;;;3.30;99.90;;;;;;5048241;28;20478;-59
2021/01/01 09:12:44;;;;;;;81.10;32.13;;;3.30;99.90;;;;;;5052061;28;20119;-59
2021/01/01 09:15:10;;;;;;;86.82;33.30;;;3.20;99.90;;;;;;5053014;28;20107;-59
2021/01/01 09:17:36;;;;;;;82.32;31.02;;;3.20;99.90;;;;;;5045881;28;20033;-60
2021/01/01 09:20:07;;;;;;;89.07;32.08;;;3.20;99.90;;;;;;5059631;28;20048;-59
2021/01/01 09:22:35;;;;;;;86.10;32.80;;;3.40;99.90;;;;;;5048138;28;20033;-59
2021/01/01 09:25:23;;;;;;;85.82;32.97;;;3.60;99.90;;;;;;5048357;28;20394;-59
2021/01/01 09:27:51;;;;;;;65.90;27.90;;;3.60;99.90;;;;;;5046440;28;20040;-59
2021/01/01 09:30:20;;;;;;;84.05;32.70;;;3.70;99.90;;;;;;5043631;28;20057;-59
2021/01/01 09:32:47;;;;;;;77.82;30.85;;;3.60;99.90;;;;;;5040617;28;20038;-59
2021/01/01 09:35:14;;;;;;;79.53;32.05;;;3.50;99.90;;;;;;5037356;28;20072;-59
2021/01/01 09:38:09;;;;;;;80.80;32.58;;;3.60;99.90;;;;;;5038135;28;20093;-59
2021/01/01 09:40:34;;;;;;;80.18;29.08;;;3.70;99.90;;;;;;5025662;28;20102;-59
2021/01/01 09:43:02;;;;;;;80.05;31.63;;;3.80;99.90;;;;;;5054315;28;20025;-60
2021/01/01 09:45:28;;;;;;;54.88;21.58;;;3.90;99.90;;;;;;5047284;28;20025;-59
2021/01/01 09:47:53;;;;;;;79.07;31.35;;;4.00;99.90;;;;;;5048218;28;20033;-59
2021/01/01 09:50:19;;;;;;;77.55;31.02;;;4.10;99.90;;;;;;5046155;28;20060;-59
2021/01/01 09:52:45;;;;;;;67.35;26.83;;;4.00;99.90;;;;;;5050051;28;20142;-59
2021/01/01 09:55:11;;;;;;;79.45;29.75;;;4.20;99.90;;;;;;5048378;28;20147;-57
2021/01/01 09:57:38;;;;;;;70.22;28.67;;;4.10;99.90;;;;;;5048114;28;20028;-60
2021/01/01 10:00:10;;;;;;;71.22;25.80;;;4.20;99.90;;;;;;5045123;28;20021;-59
2021/01/01 10:02:36;;;;;;;75.40;28.92;;;4.20;99.90;;;;;;5037561;28;20033;-59
2021/01/01 10:05:03;;;;;;;67.57;26.45;;;4.10;99.90;;;;;;5031437;28;20025;-60
2021/01/01 10:07:29;;;;;;;62.47;26.67;;;4.30;99.90;;;;;;5041422;28;20745;-60
2021/01/01 10:09:55;;;;;;;77.07;28.63;;;4.30;99.90;;;;;;5049203;28;20038;-59
2021/01/01 10:12:21;;;;;;;62.97;24.95;;;4.40;99.90;;;;;;5035731;28;20040;-59
2021/01/01 10:14:46;;;;;;;67.53;28.52;;;4.30;99.90;;;;;;5038618;28;20098;-59
2021/01/01 10:17:12;;;;;;;69.13;28.95;;;4.40;99.90;;;;;;5039453;28;20416;-59
2021/01/01 10:19:41;;;;;;;70.25;27.50;;;4.40;99.90;;;;;;5045776;28;20025;-59
2021/01/01 10:22:07;;;;;;;73.90;28.90;;;4.20;99.90;;;;;;5049604;28;20039;-60
2021/01/01 10:24:33;;;;;;;65.40;28.35;;;4.40;99.90;;;;;;5047663;28;20033;-60
2021/01/01 10:26:59;;;;;;;72.68;27.50;;;4.50;99.90;;;;;;5033046;28;20060;-59
2021/01/01 10:29:25;;;;;;;74.07;29.95;;;4.70;99.90;;;;;;5045992;28;20472;-60
2021/01/01 10:31:50;;;;;;;69.82;26.48;;;4.90;99.90;;;;;;5041262;28;20067;-59
2021/01/01 10:34:17;;;;;;;70.18;29.08;;;4.90;99.90;;;;;;5036638;28;20469;-59
2021/01/01 10:36:42;;;;;;;73.18;26.65;;;5.00;99.90;;;;;;5033610;28;20583;-60
2021/01/01 10:39:09;;;;;;;74.50;25.02;;;5.00;99.90;;;;;;5039717;28;20484;-59
2021/01/01 10:41:35;;;;;;;68.85;25.10;;;5.20;99.90;;;;;;5039422;28;20078;-59
2021/01/01 10:44:03;;;;;;;65.40;23.30;;;5.30;99.90;;;;;;5040710;28;20385;-60
2021/01/01 10:46:29;;;;;;;63.17;23.33;;;5.00;99.90;;;;;;5043194;28;20025;-59
2021/01/01 10:48:54;;;;;;;65.28;22.92;;;4.90;99.90;;;;;;5046435;28;20028;-59
2021/01/01 10:51:24;;;;;;;62.85;23.05;;;5.20;99.90;;;;;;5037741;28;20042;-59
2021/01/01 10:53:50;;;;;;;;;;;5.10;99.90;;;;;;5044253;28;20080;-59
2021/01/01 10:56:28;;;;;;;77.40;29.73;;;5.00;99.90;;;;;;5039724;28;19959;-60
2021/01/01 10:58:54;;;;;;;44.75;17.38;;;5.00;99.90;;;;;;5043355;28;20029;-61
2021/01/01 11:01:20;;;;;;;88.32;31.00;;;4.70;99.90;;;;;;5028862;28;20036;-61
2021/01/01 11:03:46;;;;;;;58.55;20.95;;;4.70;99.90;;;;;;5039015;28;20043;-61
2021/01/01 11:06:12;;;;;;;64.13;25.23;;;4.80;99.90;;;;;;5045653;28;20505;-61
2021/01/01 11:08:45;;;;;;;76.78;29.13;;;4.70;99.90;;;;;;5047142;28;20104;-61
2021/01/01 11:11:12;;;;;;;82.07;27.42;;;4.60;99.90;;;;;;5029570;28;20029;-61
2021/01/01 11:13:45;;;;;;;82.45;25.90;;;4.50;99.90;;;;;;5038821;28;20420;-61
2021/01/01 12:24:57;;;;;;;52.85;18.35;;;8.40;99.90;;;;;;5041530;28;20129;-58
2021/01/01 12:27:29;;;;;;;47.53;19.33;;;8.80;99.90;;;;;;5055313;28;20480;-58
2021/01/01 12:29:55;;;;;;;59.60;22.48;;;8.80;99.90;;;;;;5038751;28;20040;-58
2021/01/01 12:32:21;;;;;;;60.13;21.77;;;9.00;99.90;;;;;;5045295;28;20037;-57
2021/01/01 12:34:47;;;;;;;49.55;19.65;;;9.50;99.90;;;;;;5057680;28;20017;-58
2021/01/01 12:37:13;;;;;;;52.08;21.65;;;10.70;98.90;;;;;;5051262;28;20037;-58
2021/01/01 12:39:39;;;;;;;31.20;13.30;;;10.10;98.70;;;;;;5039748;28;20021;-57
2021/01/01 12:42:05;;;;;;;50.00;21.08;;;;;;;;;;5035498;28;20383;-58
2021/01/01 12:44:31;;;;;;;52.20;21.02;;;9.70;98.80;;;;;;5055463;28;20040;-58
2021/01/01 12:46:59;;;;;;;44.85;17.20;;;9.60;99.30;;;;;;5037542;28;20035;-58
2021/01/01 12:49:25;;;;;;;52.40;21.77;;;9.10;99.30;;;;;;5044102;28;20024;-57
2021/01/01 12:51:51;;;;;;;50.47;20.60;;;9.10;99.20;;;;;;5040751;28;20062;-58
2021/01/01 12:54:16;;;;;;;50.35;20.13;;;10.20;99.70;;;;;;5045882;28;20390;-58
2021/01/01 12:56:42;;;;;;;39.33;15.27;;;11.00;99.50;;;;;;5039178;28;20029;-58
2021/01/01 12:59:08;;;;;;;49.15;20.77;;;10.20;95.60;;;;;;5047673;28;20580;-58
2021/01/01 13:01:35;;;;;;;47.92;20.27;;;10.60;98.30;;;;;;5045241;28;20499;-57
2021/01/01 13:04:02;;;;;;;43.17;16.83;;;11.50;96.20;;;;;;5049221;28;20061;-58
2021/01/01 13:06:28;;;;;;;52.55;21.45;;;10.40;95.50;;;;;;5032880;28;20416;-58
2021/01/01 13:08:57;;;;;;;50.33;21.13;;;11.10;96.10;;;;;;5031491;28;20079;-57
2021/01/01 13:11:26;;;;;;;52.88;22.80;;;11.00;95.30;;;;;;5036294;28;20082;-58
2021/01/01 13:13:52;;;;;;;47.72;20.50;;;10.80;96.80;;;;;;5034963;28;20041;-58
2021/01/01 13:16:36;;;;;;;43.72;15.60;;;11.70;95.20;;;;;;5048734;28;20032;-58
2021/01/01 13:19:02;;;;;;;38.75;18.15;;;11.40;94.40;;;;;;5045546;28;20538;-57
2021/01/01 13:21:32;;;;;;;50.20;19.75;;;10.60;93.70;;;;;;5042066;28;20033;-60
2021/01/01 13:23:59;;;;;;;;;;;9.50;95.60;;;;;;5040848;28;20032;-58
2021/01/01 13:26:26;;;;;;;43.25;18.80;;;10.10;96.20;;;;;;5035577;28;19912;-58
2021/01/01 13:28:52;;;;;;;43.50;13.38;;;10.50;93.60;;;;;;5038208;28;20362;-60
2021/01/01 13:31:19;;;;;;;45.22;18.83;;;9.80;95.50;;;;;;5037252;28;20033;-59
2021/01/01 13:33:44;;;;;;;37.33;15.85;;;10.20;95.50;;;;;;5034766;28;20030;-61
2021/01/01 13:36:17;;;;;;;37.60;14.63;;;8.50;96.90;;;;;;5031929;28;20041;-58
2021/01/01 13:38:45;;;;;;;40.25;14.43;;;8.40;99.60;;;;;;5039074;28;20036;-58
2021/01/01 13:41:13;;;;;;;30.58;13.73;;;7.70;99.50;;;;;;5040375;28;20037;-60
2021/01/01 13:43:40;;;;;;;43.13;18.55;;;7.20;99.90;;;;;;5039060;28;20036;-61
2021/01/01 13:46:07;;;;;;;45.08;14.40;;;7.10;99.90;;;;;;5042121;28;20017;-58